Detall de PIREP

Printer-friendly versionPDF version

[2014/06/23 16:21:00]
Flight IATA:CT1004
Pilot Number:012
Company ICAO:CAT
Aircraft Type:BE20/A
PAX:6
Departing Airport: LEDA
Destination Airport: LFMP
Alternate Airport:LFBO
Online: VATSIM
Route:REBUL H110 BGR A27 KANIG
Flight Level:F180
No Slew and time accel
No pause
Crash detect
Detect pilot in Cockpit between each 30 and 45 minutes
16:21 Zero fuel Weight: 9533 Lbs, Fuel Weight: 2292 Lbs
16:21 VATSIM:No METAR available for LEDA.
16:21 VATSIM:LFMP 231605Z VRB03KT 9999 BKN012 SCT040TCU 23/20 Q1017 TEMPO SHRA
16:21 FLAMA DEL CANIGO
16:23 Parking Brakes off
16:25 Take-off
16:25 Take off Weight: 11811 Lbs
16:25 Wind: 136º @ 005 Knots Heading: 312º
16:25 POS N41º 43´ 46´´ E000º 31´ 59´´
16:25 Gear Up: 119 Knots
16:25 Flaps:1 at 119 Knots
16:25 Flaps:0 at 123 Knots
16:38 TOC
16:38 Fuel Weight: 2115 Lb
16:40 Wind:216º@022 Knots Heading: 081º Ground Speed: 255 Knots Altitude 18083 ft
16:54 TOD
16:54 Fuel Weight: 1939 Lb
16:55 Wind:234º@026 Knots Heading: 087º Ground Speed: 315 Knots Altitude 17175 ft
17:05 Flaps:1 at 137 Knots
17:05 Flaps:2 at 136 Knots
17:05 Flaps:1 at 135 Knots
17:09 Flaps:2 at 132 Knots
17:09 Gear Down: 132 Knots
17:10 Wind:359º@003 Knots Heading: 328º Ground Speed: 121 Knots Altitude 1466 ft
17:11 TouchDown:Rate -280 ft/min Speed: 111 Knots
17:12 Flaps:0 at 59 Knots
17:12 VATSIM:LFMP 231700Z 27005KT 9999 -TSRA SCT012 SCT050CB BKN096 22/20 Q1018 TEMPO TSSHRA
17:12 Land
17:12 Wind:359º@003 Knots
17:12 Heading: 331º
17:12 Flight Duration: 00:47
17:12 Landing Weight: 11353 Lbs
17:12 POS N42º 44´ 48´´ E002º 52´ 04´´
17:15 Parking brakes on
17:15 Block to Block Duration: 00:52
17:15 Final Fuel: 1814 Lbls
17:15 Spent Fuel: 478 Lbls
17:15 Flight Length: 175 NM
17:15 TOD Land Length: 63 NM

Exportar CSV

Powered by Drupal - Modified by Danger4k